createdAt,value
2018-11-10T00:00:29.449Z,22.1
2018-11-10T00:01:19.342Z,21.9
2018-11-10T00:02:09.469Z,21.8
2018-11-10T00:03:00.506Z,21.7
2018-11-10T00:03:50.264Z,21.6
2018-11-10T00:04:40.254Z,21.5
2018-11-10T00:05:29.944Z,21.4
2018-11-10T00:06:20.312Z,21.4
2018-11-10T00:07:09.436Z,21.4
2018-11-10T00:25:22.020Z,25.4
2018-11-10T00:26:12.505Z,25.6
2018-11-10T00:27:01.688Z,25.8
2018-11-10T00:27:52.407Z,25.9
2018-11-10T00:28:41.442Z,25.9
2018-11-10T00:29:31.930Z,25.3
2018-11-10T00:30:22.296Z,24.8
2018-11-10T00:31:12.657Z,24.4
2018-11-10T00:32:01.959Z,24.1
2018-11-10T00:32:52.389Z,23.8
2018-11-10T00:33:42.278Z,23.6
2018-11-10T00:34:33.050Z,23.4
2018-11-10T00:35:22.092Z,23.3
2018-11-10T00:36:12.799Z,23.1
2018-11-10T00:37:02.277Z,23
2018-11-10T00:37:52.230Z,22.9
2018-11-10T00:38:42.769Z,22.8
2018-11-10T00:39:32.458Z,22.6
2018-11-10T00:40:22.881Z,22.4
2018-11-10T00:41:12.107Z,22.2
2018-11-10T00:42:02.807Z,22
2018-11-10T00:42:53.298Z,21.8
2018-11-10T00:43:43.220Z,21.7
2018-11-10T00:44:32.419Z,21.6
2018-11-10T00:45:22.665Z,21.5
2018-11-10T00:46:12.764Z,21.4
2018-11-10T00:47:03.321Z,21.3
2018-11-10T00:47:52.318Z,21.3
2018-11-10T00:48:44.096Z,21.3
2018-11-10T00:49:33.981Z,21.3
2018-11-10T00:50:23.698Z,21.2
2018-11-10T00:52:03.384Z,21
2018-11-10T00:52:54.665Z,20.9
2018-11-10T00:53:43.011Z,20.9
2018-11-10T00:54:32.869Z,21
2018-11-10T00:55:24.324Z,21.7
2018-11-10T00:56:13.620Z,22.3
2018-11-10T00:57:03.916Z,22.7
2018-11-10T00:57:53.488Z,23.1
2018-11-10T00:58:45.453Z,23.4
2018-11-10T00:59:33.851Z,23.8
2018-11-10T01:00:24.446Z,24.1
2018-11-10T01:01:14.383Z,24.3
2018-11-10T01:02:04.755Z,24.5
2018-11-10T01:02:53.907Z,24.7
2018-11-10T01:03:44.656Z,24.9
2018-11-10T01:04:34.676Z,25
2018-11-10T01:05:24.570Z,25.2
2018-11-10T01:06:15.155Z,25.3
2018-11-10T01:07:04.452Z,25.4
2018-11-10T01:07:54.457Z,25.6
2018-11-10T01:08:44.497Z,25.7
2018-11-10T01:09:35.362Z,25.8
2018-11-10T01:10:25.185Z,25.9
2018-11-10T01:11:15.815Z,25.4
2018-11-10T01:12:04.731Z,24.9
2018-11-10T01:12:55.970Z,24.5
2018-11-10T01:13:44.140Z,24.2
2018-11-10T01:14:35.180Z,23.9
2018-11-10T01:15:25.772Z,23.7
2018-11-10T01:16:15.640Z,23.5
2018-11-10T01:17:04.644Z,23.4
2018-11-10T01:17:55.434Z,23.3
2018-11-10T01:18:45.793Z,23.1
2018-11-10T01:19:35.827Z,23
2018-11-10T01:20:25.578Z,22.9
2018-11-10T01:21:15.210Z,22.7
2018-11-10T01:22:05.306Z,22.4
2018-11-10T01:22:56.056Z,22.3
2018-11-10T01:23:45.182Z,22.1
2018-11-10T01:24:37.301Z,21.9
2018-11-10T01:25:26.547Z,21.8
2018-11-10T01:26:15.244Z,21.8
2018-11-10T01:27:07.181Z,21.7
2018-11-10T01:27:57.327Z,21.6
2018-11-10T01:28:47.038Z,21.5
2018-11-10T01:29:36.009Z,21.4
2018-11-10T01:30:27.040Z,21.4
2018-11-10T01:31:15.738Z,21.3
2018-11-10T01:32:06.988Z,21.2
2018-11-10T01:33:45.851Z,21.1
2018-11-10T01:34:36.829Z,20.9
2018-11-10T01:35:26.554Z,20.9
2018-11-10T01:36:17.261Z,21.4
2018-11-10T01:37:06.316Z,22.1
2018-11-10T01:37:57.546Z,22.5
2018-11-10T01:38:46.583Z,22.9
2018-11-10T01:39:37.598Z,23.3
2018-11-10T01:40:26.691Z,23.6
2018-11-10T01:41:17.884Z,23.9
2018-11-10T01:42:07.602Z,24.1
2018-11-10T01:42:57.006Z,24.4
2018-11-10T01:43:46.945Z,24.5
2018-11-10T01:44:37.836Z,24.7
2018-11-10T01:45:28.594Z,24.9
2018-11-10T01:46:18.224Z,25
2018-11-10T01:47:07.540Z,25.1
2018-11-10T01:47:56.808Z,25.3
2018-11-10T01:48:47.887Z,25.4
2018-11-10T01:49:38.315Z,25.4
2018-11-10T01:50:27.740Z,25.6
2018-11-10T01:51:17.538Z,25.7
2018-11-10T01:52:07.850Z,25.8
2018-11-10T01:52:58.517Z,25.9
2018-11-10T01:53:48.797Z,25.5
2018-11-10T01:54:38.775Z,24.9
2018-11-10T01:55:28.442Z,24.5
2018-11-10T01:56:18.730Z,24.2
2018-11-10T01:57:08.604Z,23.9
2018-11-10T01:57:59.532Z,23.7
2018-11-10T01:58:48.627Z,23.5
2018-11-10T01:59:38.818Z,23.3
2018-11-10T02:00:28.094Z,23.2
2018-11-10T02:01:18.965Z,23.1
2018-11-10T02:02:09.435Z,23
2018-11-10T02:02:58.987Z,22.9
2018-11-10T02:03:49.212Z,22.6
2018-11-10T02:04:38.769Z,22.4
2018-11-10T02:05:28.744Z,22.2
2018-11-10T02:06:18.401Z,22
2018-11-10T02:07:08.479Z,21.8
2018-11-10T02:07:58.757Z,21.7
2018-11-10T02:08:48.599Z,21.6
2018-11-10T02:09:40.164Z,21.5
2018-11-10T02:10:27.973Z,21.4
2018-11-10T02:11:18.374Z,21.3
2018-11-10T02:12:10.239Z,21.2
2018-11-10T02:14:40.126Z,21
2018-11-10T02:15:29.864Z,20.9
2018-11-10T02:16:19.236Z,20.8
2018-11-10T02:17:09.195Z,20.7
2018-11-10T02:17:59.941Z,20.7
2018-11-10T02:18:49.543Z,21.4
2018-11-10T02:19:39.323Z,22
2018-11-10T02:20:30.025Z,22.4
2018-11-10T02:21:19.235Z,22.8
2018-11-10T02:22:10.328Z,23.2
2018-11-10T02:22:59.883Z,23.4
2018-11-10T02:23:50.573Z,23.8
2018-11-10T02:24:40.906Z,24
2018-11-10T02:25:30.175Z,24.2
2018-11-10T02:26:19.960Z,24.4
2018-11-10T02:27:09.114Z,24.6
2018-11-10T02:28:01.025Z,24.6
2018-11-10T02:28:49.985Z,24.1
2018-11-10T02:29:40.923Z,23.3
2018-11-10T02:30:30.481Z,22.6
2018-11-10T02:31:21.365Z,22
2018-11-10T02:32:10.410Z,21.4
2018-11-10T02:33:01.626Z,20.6
2018-11-10T02:33:51.981Z,20.1
2018-11-10T02:34:41.082Z,20.1
2018-11-10T02:35:30.812Z,20.4
2018-11-10T02:36:20.815Z,21.2
2018-11-10T02:37:11.335Z,21.9
2018-11-10T02:38:01.817Z,22.5
2018-11-10T02:38:53.111Z,22.9
2018-11-10T02:39:41.273Z,23.3
2018-11-10T02:40:31.078Z,23.6
2018-11-10T02:41:21.712Z,23.9
2018-11-10T02:42:11.802Z,24.2
2018-11-10T02:43:02.217Z,24.4
2018-11-10T02:43:51.730Z,24.6
2018-11-10T02:44:41.659Z,24.8
2018-11-10T02:45:31.654Z,24.9
2018-11-10T02:46:20.712Z,25.1
2018-11-10T02:47:11.484Z,25.2
2018-11-10T02:48:01.847Z,25.3
2018-11-10T02:48:52.595Z,25.4
2018-11-10T02:49:42.812Z,25.6
2018-11-10T02:50:32.934Z,25.6
2018-11-10T02:51:21.320Z,25.8
2018-11-10T02:52:12.992Z,25.8
2018-11-10T02:53:02.629Z,25.3
2018-11-10T02:53:52.367Z,24.8
2018-11-10T02:54:43.534Z,24.3
2018-11-10T02:55:32.421Z,24
2018-11-10T02:56:22.837Z,23.8
2018-11-10T02:57:12.244Z,23.6
2018-11-10T02:58:02.553Z,23.4
2018-11-10T02:58:52.914Z,23.2
2018-11-10T02:59:43.791Z,23.1
2018-11-10T03:00:33.317Z,22.9
2018-11-10T03:01:22.142Z,22.8
2018-11-10T03:02:12.931Z,22.8
2018-11-10T03:03:04.058Z,22.5
2018-11-10T03:03:53.725Z,22.3
2018-11-10T03:04:43.154Z,22
2018-11-10T03:05:34.016Z,21.8
2018-11-10T03:06:23.808Z,21.7
2018-11-10T03:07:13.844Z,21.5
2018-11-10T03:08:04.106Z,21.4
2018-11-10T03:08:54.209Z,21.3
2018-11-10T03:09:44.261Z,21.2
2018-11-10T03:11:23.295Z,21.1
2018-11-10T03:12:13.273Z,21
2018-11-10T03:13:03.318Z,20.9
2018-11-10T03:13:54.117Z,20.9
2018-11-10T03:14:45.194Z,20.8
2018-11-10T03:15:34.373Z,20.7
2018-11-10T03:16:23.746Z,20.6
2018-11-10T03:17:14.212Z,20.9
2018-11-10T03:18:03.807Z,21.6
2018-11-10T03:18:54.012Z,22.2
2018-11-10T03:19:43.925Z,22.6
2018-11-10T03:20:35.062Z,22.9
2018-11-10T03:21:24.775Z,23.3
2018-11-10T03:22:13.597Z,23.6
2018-11-10T03:23:04.905Z,23.8
2018-11-10T03:23:54.745Z,24.1
2018-11-10T03:24:45.102Z,24.3
2018-11-10T03:25:34.944Z,24.4
2018-11-10T03:26:24.857Z,24.6
2018-11-10T03:27:15.260Z,24.7
2018-11-10T03:28:04.795Z,24.8
2018-11-10T03:28:54.459Z,24.9
2018-11-10T03:29:44.925Z,25.1
2018-11-10T03:30:35.086Z,25.2
2018-11-10T03:31:25.150Z,25.3
2018-11-10T03:32:15.809Z,25.3
2018-11-10T03:33:04.182Z,25.4
2018-11-10T03:33:55.251Z,25.5
2018-11-10T03:34:45.505Z,25.6
2018-11-10T03:35:34.337Z,25.7
2018-11-10T03:36:26.674Z,25.8
2018-11-10T03:37:15.554Z,25.4
2018-11-10T03:38:05.587Z,24.8
2018-11-10T03:38:55.914Z,24.4
2018-11-10T03:39:45.080Z,24
2018-11-10T03:40:35.069Z,23.8
2018-11-10T03:41:24.507Z,23.5
2018-11-10T03:42:16.143Z,23.3
2018-11-10T03:43:05.642Z,23.1
2018-11-10T03:43:55.554Z,22.9
2018-11-10T03:44:46.590Z,22.8
2018-11-10T03:45:35.343Z,22.6
2018-11-10T03:46:25.671Z,22.6
2018-11-10T03:47:15.886Z,22.4
2018-11-10T03:48:05.924Z,22.3
2018-11-10T03:48:56.366Z,22.1
2018-11-10T03:49:46.550Z,21.9
2018-11-10T03:50:35.980Z,21.8
2018-11-10T03:51:27.071Z,21.6
2018-11-10T03:52:17.162Z,21.4
2018-11-10T03:53:06.426Z,21.4
2018-11-10T03:53:57.026Z,21.3
2018-11-10T03:54:46.446Z,21.2
2018-11-10T03:56:26.863Z,21.1
2018-11-10T03:57:17.477Z,21
2018-11-10T03:58:07.291Z,20.9
2018-11-10T03:58:56.868Z,20.9
2018-11-10T03:59:46.053Z,20.8
2018-11-10T04:00:36.731Z,20.7
2018-11-10T04:01:26.700Z,20.9
2018-11-10T04:02:17.853Z,21.5
2018-11-10T04:03:07.093Z,22.1
2018-11-10T04:03:56.858Z,22.5
2018-11-10T04:04:46.559Z,22.8
2018-11-10T04:05:37.279Z,23.1
2018-11-10T04:06:27.319Z,23.4
2018-11-10T04:07:17.141Z,23.7
2018-11-10T04:08:08.512Z,23.9
2018-11-10T04:08:57.835Z,24.1
2018-11-10T04:09:48.307Z,24.3
2018-11-10T04:10:38.680Z,24.4
2018-11-10T04:11:28.807Z,24.6
2018-11-10T04:12:18.582Z,24.7
2018-11-10T04:13:08.504Z,24.8
2018-11-10T04:13:57.870Z,24.9
2018-11-10T04:14:48.172Z,25
2018-11-10T04:15:39.087Z,25.1
2018-11-10T04:16:28.709Z,25.2
2018-11-10T04:17:18.400Z,25.3
2018-11-10T04:18:07.573Z,25.3
2018-11-10T04:18:59.001Z,25.4
2018-11-10T04:19:49.572Z,25.4
2018-11-10T04:20:38.829Z,25.5
2018-11-10T04:21:28.673Z,25.6
2018-11-10T04:22:18.388Z,25.6
2018-11-10T04:23:07.801Z,25.5
2018-11-10T04:23:58.902Z,24.9
2018-11-10T04:24:49.151Z,24.4
2018-11-10T04:25:40.315Z,24.1
2018-11-10T04:26:28.403Z,23.7
2018-11-10T04:27:19.021Z,23.5
2018-11-10T04:28:09.447Z,23.3
2018-11-10T04:28:59.575Z,23.1
2018-11-10T04:29:49.512Z,23
2018-11-10T04:30:39.133Z,22.8
2018-11-10T04:31:28.926Z,22.7
2018-11-10T04:32:19.408Z,22.6
2018-11-10T04:33:09.661Z,22.5
2018-11-10T04:33:58.986Z,22.3
2018-11-10T04:34:49.849Z,22.1
2018-11-10T04:35:40.238Z,21.9
2018-11-10T04:36:29.149Z,21.8
2018-11-10T04:54:36.560Z,23.7
2018-11-10T04:55:26.832Z,23.9
2018-11-10T04:56:17.315Z,24.1
2018-11-10T04:57:06.577Z,24.2
2018-11-10T04:57:57.032Z,24.3
2018-11-10T04:58:47.182Z,24.4
2018-11-10T04:59:36.957Z,24.6
2018-11-10T05:00:26.874Z,24.6
2018-11-10T05:01:16.900Z,24.8
2018-11-10T05:02:07.231Z,24.8
2018-11-10T05:02:57.846Z,24.9
2018-11-10T05:03:47.451Z,24.9
2018-11-10T05:04:36.636Z,25.1
2018-11-10T05:05:27.436Z,25.1
2018-11-10T05:06:17.840Z,25.1
2018-11-10T05:07:07.279Z,25.2
2018-11-10T05:07:57.743Z,25.3
2018-11-10T05:08:47.788Z,25.3
2018-11-10T05:09:37.697Z,25.3
2018-11-10T05:10:28.323Z,25.4
2018-11-10T05:11:17.291Z,25.4
2018-11-10T05:12:08.484Z,25.4
2018-11-10T05:12:58.194Z,25.4
2018-11-10T05:13:47.758Z,25.5
2018-11-10T05:14:38.041Z,25.3
2018-11-10T05:15:29.668Z,24.8
2018-11-10T05:16:17.940Z,24.3
2018-11-10T05:17:07.501Z,23.9
2018-11-10T05:17:58.755Z,23.6
2018-11-10T05:18:48.145Z,23.4
2018-11-10T05:19:38.938Z,23.3
2018-11-10T05:20:28.398Z,23
2018-11-10T05:21:18.648Z,22.9
2018-11-10T05:22:08.456Z,22.8
2018-11-10T05:22:58.390Z,22.6
2018-11-10T05:23:49.608Z,22.6
2018-11-10T05:24:39.078Z,22.5
2018-11-10T05:25:29.202Z,22.3
2018-11-10T05:26:19.347Z,22.1
2018-11-10T05:27:08.630Z,21.9
2018-11-10T05:27:58.873Z,21.8
2018-11-10T05:28:50.252Z,21.6
2018-11-10T05:29:38.495Z,21.5
2018-11-10T05:30:29.163Z,21.4
2018-11-10T05:31:22.457Z,21.3
2018-11-10T05:32:09.555Z,21.2
2018-11-10T05:33:50.055Z,21.1
2018-11-10T05:34:38.957Z,20.9
2018-11-10T05:35:31.259Z,20.9
2018-11-10T05:36:20.433Z,20.9
2018-11-10T05:37:10.429Z,20.8
2018-11-10T05:38:00.900Z,20.7
2018-11-10T05:38:50.404Z,20.6
2018-11-10T05:39:40.595Z,20.8
2018-11-10T05:40:30.064Z,21.4
2018-11-10T05:41:19.417Z,21.8
2018-11-10T05:42:10.180Z,22.2
2018-11-10T05:42:59.927Z,22.6
2018-11-10T05:43:49.519Z,22.9
2018-11-10T05:44:40.669Z,23.1
2018-11-10T05:45:30.389Z,23.3
2018-11-10T05:46:19.904Z,23.5
2018-11-10T05:47:09.984Z,23.7
2018-11-10T05:48:00.419Z,23.8
2018-11-10T05:48:50.051Z,23.9
2018-11-10T05:49:41.036Z,24.1
2018-11-10T05:50:30.631Z,24.2
2018-11-10T05:51:21.331Z,24.3
2018-11-10T05:52:11.734Z,24.3
2018-11-10T05:53:01.238Z,24.1
2018-11-10T05:53:50.529Z,23.7
2018-11-10T05:54:40.826Z,22.9
2018-11-10T05:55:30.851Z,22.3
2018-11-10T05:56:21.839Z,21.8
2018-11-10T05:58:00.794Z,20.5
2018-11-10T05:58:52.420Z,19.8
2018-11-10T05:59:41.641Z,19.2
2018-11-10T06:00:31.941Z,19.3
2018-11-10T06:01:21.425Z,19.4
2018-11-10T06:02:12.113Z,20.3
2018-11-10T06:03:52.023Z,21.8
2018-11-10T06:04:41.257Z,22.1
2018-11-10T06:05:31.112Z,22.2
2018-11-10T06:06:22.982Z,22.3
2018-11-10T06:07:11.408Z,22.4
2018-11-10T06:08:01.516Z,22.6
2018-11-10T06:08:51.233Z,22.9
2018-11-10T06:09:43.840Z,23.3
2018-11-10T06:10:35.196Z,23.6
2018-11-10T06:11:22.361Z,23.9
2018-11-10T06:12:11.363Z,24.1
2018-11-10T06:13:02.543Z,24.3
2018-11-10T06:13:52.465Z,23.8
2018-11-10T06:14:41.913Z,23.3
2018-11-10T06:15:32.550Z,22.8
2018-11-10T06:16:22.282Z,22.9
2018-11-10T06:17:13.003Z,23.3
2018-11-10T06:18:01.963Z,23.6
2018-11-10T06:18:54.106Z,23.8
2018-11-10T06:19:42.304Z,23.7
2018-11-10T06:20:32.882Z,23.5
2018-11-10T06:21:23.158Z,23.4
2018-11-10T06:22:13.567Z,23.4
2018-11-10T06:23:02.307Z,23.4
2018-11-10T06:23:53.051Z,23.4
2018-11-10T06:24:44.307Z,23.4
2018-11-10T06:25:33.507Z,23.4
2018-11-10T06:26:23.187Z,23.4
2018-11-10T06:27:13.951Z,23.4
2018-11-10T06:28:03.471Z,23.4
2018-11-10T06:28:55.136Z,23.3
2018-11-10T06:29:43.021Z,23.3
2018-11-10T06:30:34.113Z,23.2
2018-11-10T06:31:23.544Z,23.1
2018-11-10T06:32:14.234Z,23
2018-11-10T06:33:03.187Z,22.9
2018-11-10T06:33:54.479Z,22.8
2018-11-10T06:34:43.559Z,22.8
2018-11-10T06:35:33.741Z,22.6
2018-11-10T06:36:24.776Z,22.6
2018-11-10T06:37:14.319Z,22.5
2018-11-10T06:38:04.203Z,22.4
2018-11-10T06:38:54.966Z,22.3
2018-11-10T06:39:44.626Z,22.2
2018-11-10T06:40:34.921Z,22.1
2018-11-10T06:41:24.880Z,22.1
2018-11-10T06:42:15.136Z,21.9
2018-11-10T06:43:05.436Z,21.9
2018-11-10T06:43:54.435Z,21.8
2018-11-10T06:44:44.576Z,21.7
2018-11-10T06:45:35.225Z,21.6
2018-11-10T06:46:24.910Z,21.5
2018-11-10T06:47:16.482Z,21.4
2018-11-10T06:48:05.169Z,21.4
2018-11-10T06:49:45.128Z,20.8
2018-11-10T06:50:35.876Z,20.4
2018-11-10T06:51:25.341Z,20.2
2018-11-10T06:52:15.054Z,20
2018-11-10T06:53:07.379Z,19.9
2018-11-10T06:53:55.218Z,19.8
2018-11-10T06:54:45.823Z,19.8
2018-11-10T06:55:35.167Z,19.8
2018-11-10T06:56:24.922Z,19.8
2018-11-10T06:57:15.932Z,19.9
2018-11-10T06:58:04.938Z,19.9
2018-11-10T06:58:56.287Z,19.9
2018-11-10T06:59:46.264Z,19.9
2018-11-10T07:00:34.947Z,19.8
2018-11-10T07:01:24.457Z,19.8
2018-11-10T07:02:14.760Z,19.8
2018-11-10T07:03:05.330Z,19.8
2018-11-10T07:03:56.290Z,19.7
2018-11-10T07:04:45.581Z,19.7
2018-11-10T07:05:36.131Z,19.6
2018-11-10T07:06:25.810Z,19.6
2018-11-10T07:07:15.729Z,19.5
2018-11-10T07:08:07.914Z,19.5
2018-11-10T07:08:56.621Z,19.4
2018-11-10T07:09:47.469Z,19.4
2018-11-10T07:10:35.829Z,19.4
2018-11-10T07:11:26.300Z,19.3
2018-11-10T07:12:16.540Z,19.3
2018-11-10T07:13:07.298Z,19.2
2018-11-10T07:13:57.183Z,19.1
2018-11-10T07:14:45.977Z,19.1
2018-11-10T07:15:37.051Z,19.1
2018-11-10T07:16:26.982Z,19
2018-11-10T07:17:17.693Z,19
2018-11-10T07:18:07.809Z,18.9
2018-11-10T07:18:58.211Z,18.9
2018-11-10T07:19:46.621Z,18.8
2018-11-10T07:20:37.301Z,18.8
2018-11-10T07:21:26.903Z,18.8
2018-11-10T07:23:57.440Z,18.6
2018-11-10T07:24:47.833Z,18.6
2018-11-10T07:25:38.434Z,18.6
2018-11-10T07:26:28.112Z,18.6
2018-11-10T07:27:17.088Z,18.5
2018-11-10T07:28:07.756Z,18.4
2018-11-10T07:28:57.230Z,18.4
2018-11-10T07:29:47.532Z,18.4
2018-11-10T07:30:37.431Z,18.4
2018-11-10T07:31:27.903Z,18.3
2018-11-10T07:32:16.890Z,18.3
2018-11-10T07:33:07.570Z,18.3
2018-11-10T07:33:57.284Z,18.2
2018-11-10T07:34:47.184Z,18.2
2018-11-10T07:35:37.539Z,18.2
2018-11-10T07:36:27.202Z,18.1
2018-11-10T07:37:17.733Z,18.1
2018-11-10T07:38:07.207Z,18.1
2018-11-10T07:38:58.881Z,18.1
2018-11-10T07:39:47.825Z,18
2018-11-10T07:40:39.049Z,18
2018-11-10T07:41:28.609Z,17.9
2018-11-10T07:42:18.566Z,17.9
2018-11-10T07:43:08.935Z,17.9
2018-11-10T07:43:58.370Z,17.9
2018-11-10T07:44:48.666Z,17.8
2018-11-10T07:45:39.071Z,17.8
2018-11-10T07:46:28.288Z,17.8
2018-11-10T07:47:19.174Z,17.8
2018-11-10T07:48:08.186Z,17.7
2018-11-10T07:48:58.616Z,17.7
2018-11-10T07:49:49.589Z,17.7
2018-11-10T07:50:38.833Z,17.6
2018-11-10T07:51:30.559Z,17.6
2018-11-10T07:52:18.353Z,17.6
2018-11-10T07:53:09.655Z,17.6
2018-11-10T07:53:59.935Z,17.5
2018-11-10T07:54:48.981Z,17.5
2018-11-10T07:55:40.367Z,17.5
2018-11-10T07:56:29.377Z,17.5
2018-11-10T07:57:20.106Z,17.4
2018-11-10T07:58:09.705Z,17.4
2018-11-10T07:59:00.158Z,17.4
2018-11-10T07:59:48.988Z,17.4
2018-11-10T08:00:40.043Z,17.4
2018-11-10T08:01:29.842Z,17.3
2018-11-10T08:02:20.100Z,17.3
2018-11-10T08:03:10.311Z,17.3
2018-11-10T08:04:01.133Z,17.3
2018-11-10T08:04:49.950Z,17.3
2018-11-10T08:05:41.482Z,17.2
2018-11-10T08:06:29.292Z,17.2
2018-11-10T08:07:20.013Z,17.2
2018-11-10T08:08:10.895Z,17.2
2018-11-10T08:09:00.635Z,17.1
2018-11-10T08:09:51.609Z,17.1
2018-11-10T08:10:41.582Z,17.1
2018-11-10T08:11:30.124Z,17.1
2018-11-10T08:12:20.611Z,17.1
2018-11-10T08:13:10.984Z,17.1
2018-11-10T08:17:20.537Z,16.9
2018-11-10T08:18:10.882Z,16.9
2018-11-10T08:19:00.519Z,16.9
2018-11-10T08:19:51.989Z,16.9
2018-11-10T08:20:41.989Z,16.9
2018-11-10T08:21:31.623Z,16.9
2018-11-10T08:22:21.556Z,16.9
2018-11-10T08:23:11.347Z,16.9
2018-11-10T08:24:02.289Z,16.8
2018-11-10T08:24:52.754Z,16.8
2018-11-10T08:25:41.649Z,16.8
2018-11-10T08:26:31.110Z,16.8
2018-11-10T08:27:21.704Z,16.8
2018-11-10T08:28:11.549Z,16.8
2018-11-10T08:29:02.166Z,16.8
2018-11-10T08:29:52.494Z,16.8
2018-11-10T08:30:42.219Z,16.8
2018-11-10T08:31:32.391Z,16.8
2018-11-10T08:32:22.506Z,16.7
2018-11-10T08:33:10.175Z,16.7
2018-11-10T08:34:01.264Z,16.7
2018-11-10T08:34:51.776Z,16.7
2018-11-10T08:35:42.323Z,16.7
2018-11-10T08:36:30.758Z,16.6
2018-11-10T08:37:22.428Z,16.6
2018-11-10T08:38:11.151Z,16.6
2018-11-10T08:39:02.731Z,16.6
2018-11-10T08:39:52.185Z,16.6
2018-11-10T08:40:42.123Z,16.6
2018-11-10T08:41:32.376Z,16.6
2018-11-10T08:42:23.185Z,16.6
2018-11-10T08:43:13.431Z,16.6
2018-11-10T08:44:02.377Z,16.5
2018-11-10T08:44:51.972Z,16.5
2018-11-10T08:45:43.574Z,16.5
2018-11-10T08:46:33.340Z,16.5
2018-11-10T08:47:22.980Z,16.5
2018-11-10T08:48:12.150Z,16.5
2018-11-10T08:49:03.587Z,16.4
2018-11-10T08:49:52.894Z,16.4
2018-11-10T08:50:42.705Z,16.4
2018-11-10T08:51:31.930Z,16.4
2018-11-10T08:52:22.555Z,16.4
2018-11-10T09:09:03.029Z,16.3
2018-11-10T09:09:52.907Z,16.3
2018-11-10T09:10:43.091Z,16.3
2018-11-10T09:11:31.694Z,16.2
2018-11-10T09:12:23.564Z,16.2
2018-11-10T09:13:13.113Z,16.2
2018-11-10T09:14:02.525Z,16.2
2018-11-10T09:14:54.019Z,16.2
2018-11-10T09:15:43.458Z,16.2
2018-11-10T09:16:33.225Z,16.2
2018-11-10T09:17:23.113Z,16.2
2018-11-10T09:18:13.026Z,16.2
2018-11-10T09:19:01.992Z,16.2
2018-11-10T09:19:54.071Z,16.1
2018-11-10T09:20:43.415Z,16.1
2018-11-10T09:21:34.931Z,16.1
2018-11-10T09:22:24.095Z,16.1
2018-11-10T09:23:12.607Z,16.1
2018-11-10T09:24:02.721Z,16.1
2018-11-10T09:24:54.103Z,16.1
2018-11-10T09:25:44.198Z,16.1
2018-11-10T09:26:33.187Z,16.1
2018-11-10T09:27:23.505Z,16.1
2018-11-10T09:28:13.846Z,16.1
2018-11-10T09:29:03.390Z,16.1
2018-11-10T09:29:53.078Z,16.1
2018-11-10T09:30:43.761Z,16.1
2018-11-10T09:31:33.965Z,16.1
2018-11-10T09:32:24.165Z,16.1
2018-11-10T09:33:14.397Z,16.1
2018-11-10T09:34:04.921Z,16.1
2018-11-10T09:34:54.622Z,16.1
2018-11-10T09:35:44.303Z,16.1
2018-11-10T09:36:35.405Z,16.1
2018-11-10T09:37:25.299Z,16.1
2018-11-10T09:38:15.167Z,16.1
2018-11-10T09:39:03.807Z,16.1
2018-11-10T09:39:55.003Z,16
2018-11-10T09:40:44.847Z,16
2018-11-10T09:41:34.998Z,16
2018-11-10T09:42:28.515Z,16
2018-11-10T09:43:14.585Z,16
2018-11-10T09:44:05.445Z,16
2018-11-10T09:44:55.335Z,16
2018-11-10T09:45:44.311Z,16
2018-11-10T09:46:36.518Z,16
2018-11-10T09:47:24.105Z,16
2018-11-10T09:48:14.715Z,16
2018-11-10T09:49:06.057Z,16
2018-11-10T09:49:56.789Z,16
2018-11-10T09:50:45.328Z,16
2018-11-10T09:51:35.471Z,15.9
2018-11-10T09:52:26.396Z,16
2018-11-10T09:53:16.144Z,15.9
2018-11-10T09:54:05.509Z,15.9
2018-11-10T09:54:56.531Z,15.9
2018-11-10T09:55:45.814Z,15.9
2018-11-10T09:56:35.899Z,15.9
2018-11-10T09:57:26.420Z,15.9
2018-11-10T09:58:15.728Z,15.9
2018-11-10T09:59:06.049Z,15.9
2018-11-10T09:59:56.638Z,15.9
2018-11-10T10:00:46.401Z,15.9
2018-11-10T10:01:41.269Z,15.9
2018-11-10T10:02:33.186Z,15.9
2018-11-10T10:03:15.326Z,15.9
2018-11-10T10:04:06.925Z,15.9
2018-11-10T10:04:56.034Z,15.9
2018-11-10T10:05:45.775Z,15.9
2018-11-10T10:06:36.878Z,15.9
2018-11-10T10:07:26.436Z,15.9
2018-11-10T10:08:15.318Z,15.9
2018-11-10T10:09:07.536Z,15.9
2018-11-10T10:09:58.055Z,15.9
2018-11-10T10:10:46.724Z,15.9
2018-11-10T10:11:37.335Z,15.9
2018-11-10T10:12:26.182Z,15.9
2018-11-10T10:13:17.951Z,15.9
2018-11-10T10:14:06.197Z,15.9
2018-11-10T10:14:56.157Z,15.9
2018-11-10T10:15:46.786Z,15.9
2018-11-10T10:16:38.285Z,15.9
2018-11-10T10:17:26.145Z,15.9
2018-11-10T10:18:16.692Z,15.9
2018-11-10T10:19:07.190Z,15.9
2018-11-10T10:19:57.616Z,15.9
2018-11-10T10:20:47.450Z,15.9
2018-11-10T10:21:38.313Z,15.9
2018-11-10T10:22:28.845Z,15.9
2018-11-10T10:23:15.412Z,15.9
2018-11-10T10:24:07.022Z,15.9
2018-11-10T10:24:56.618Z,15.9
2018-11-10T10:25:48.254Z,15.9
2018-11-10T10:26:38.571Z,15.9
2018-11-10T10:27:27.355Z,15.9
2018-11-10T10:28:17.781Z,15.9
2018-11-10T10:29:11.199Z,15.9
2018-11-10T10:29:59.207Z,15.9
2018-11-10T10:30:47.442Z,15.9
2018-11-10T10:31:37.926Z,15.9
2018-11-10T10:32:27.144Z,15.9
2018-11-10T10:33:18.066Z,15.9
2018-11-10T10:34:09.371Z,15.9
2018-11-10T10:35:01.214Z,15.9
2018-11-10T10:35:49.617Z,15.9
2018-11-10T10:36:37.989Z,15.9
2018-11-10T10:37:28.564Z,15.9
2018-11-10T10:38:18.662Z,15.9
2018-11-10T10:39:08.909Z,15.9
2018-11-10T10:39:58.989Z,15.9
2018-11-10T10:40:49.808Z,15.9
2018-11-10T10:41:39.015Z,15.9
2018-11-10T10:42:29.464Z,15.9
2018-11-10T10:43:19.686Z,15.9
2018-11-10T10:44:08.833Z,15.9
2018-11-10T10:44:59.080Z,15.8
2018-11-10T10:45:50.118Z,15.9
2018-11-10T10:46:38.723Z,15.9
2018-11-10T10:47:29.798Z,15.9
2018-11-10T10:48:18.877Z,15.9
2018-11-10T10:49:09.442Z,15.8
2018-11-10T10:50:00.303Z,15.9
2018-11-10T10:50:50.098Z,15.8
2018-11-10T10:51:40.095Z,15.8
2018-11-10T10:52:30.621Z,15.8
2018-11-10T10:53:19.775Z,15.8
2018-11-10T10:54:10.438Z,15.8
2018-11-10T10:55:00.865Z,15.9
2018-11-10T10:55:50.186Z,15.9
2018-11-10T10:56:41.592Z,15.9
2018-11-10T10:57:30.055Z,15.8
2018-11-10T10:58:20.570Z,15.8
2018-11-10T10:59:09.928Z,15.8
2018-11-10T11:00:00.138Z,15.8
2018-11-10T11:00:49.170Z,15.9
2018-11-10T11:01:41.147Z,15.9
2018-11-10T11:02:29.812Z,15.9
2018-11-10T11:03:21.763Z,15.8
2018-11-10T11:04:11.353Z,15.8
2018-11-10T11:05:00.380Z,15.8
2018-11-10T11:05:50.962Z,15.8
2018-11-10T11:06:41.642Z,15.8
2018-11-10T11:07:31.070Z,15.8
2018-11-10T11:08:20.794Z,15.8
2018-11-10T11:09:11.936Z,15.8
2018-11-10T11:10:01.618Z,15.8
2018-11-10T11:10:51.197Z,15.8
2018-11-10T11:11:40.602Z,15.9
2018-11-10T11:12:31.272Z,15.8
2018-11-10T11:13:21.444Z,15.8
2018-11-10T11:14:10.729Z,15.8
2018-11-10T11:15:02.710Z,15.8
2018-11-10T11:15:53.661Z,15.8
2018-11-10T11:16:41.629Z,15.8
2018-11-10T11:17:31.067Z,15.8
2018-11-10T11:18:20.914Z,15.9
2018-11-10T11:19:10.605Z,15.8
2018-11-10T11:20:01.635Z,15.8
2018-11-10T11:20:51.682Z,15.8
2018-11-10T11:21:42.469Z,15.8
2018-11-10T11:22:30.842Z,15.8
2018-11-10T11:23:22.986Z,15.8
2018-11-10T11:24:11.028Z,15.8
2018-11-10T11:25:00.896Z,15.8
2018-11-10T11:25:50.487Z,15.8
2018-11-10T11:26:41.367Z,15.8
2018-11-10T11:27:32.253Z,15.8
2018-11-10T11:28:21.888Z,15.8
2018-11-10T11:29:12.500Z,15.8
2018-11-10T11:30:02.601Z,15.8
2018-11-10T11:30:51.971Z,15.9
2018-11-10T11:31:41.641Z,15.8
2018-11-10T11:32:32.143Z,15.9
2018-11-10T11:33:21.721Z,15.9
2018-11-10T11:34:12.593Z,15.9
2018-11-10T11:35:02.649Z,15.9
2018-11-10T11:35:52.087Z,15.9
2018-11-10T11:36:42.443Z,15.9
2018-11-10T11:37:32.777Z,15.9
2018-11-10T11:38:22.877Z,15.9
2018-11-10T11:39:12.295Z,15.9
2018-11-10T11:40:01.410Z,15.9
2018-11-10T11:40:52.821Z,15.9
2018-11-10T11:41:43.778Z,15.9
2018-11-10T11:42:34.063Z,15.9
2018-11-10T11:43:22.040Z,15.9
2018-11-10T11:44:11.853Z,15.9
2018-11-10T11:45:02.845Z,15.9
2018-11-10T11:45:52.490Z,15.9
2018-11-10T11:46:44.163Z,15.9
2018-11-10T11:47:34.175Z,15.9
2018-11-10T11:48:24.057Z,15.9
2018-11-10T11:49:13.674Z,15.9
2018-11-10T11:50:03.275Z,15.9
2018-11-10T11:50:53.217Z,15.9
2018-11-10T11:51:43.329Z,15.9
2018-11-10T11:52:34.640Z,15.9
2018-11-10T11:53:25.379Z,15.9
2018-11-10T11:54:12.951Z,15.9
2018-11-10T11:55:03.850Z,15.9
2018-11-10T11:55:53.427Z,15.9
2018-11-10T11:56:44.139Z,15.9
2018-11-10T11:57:35.657Z,15.9
2018-11-10T11:58:27.416Z,15.9
2018-11-10T11:59:15.585Z,15.9
2018-11-10T12:00:04.601Z,15.9
2018-11-10T12:00:55.254Z,15.9
2018-11-10T12:01:44.296Z,15.9
2018-11-10T12:02:35.179Z,15.9
2018-11-10T12:03:24.220Z,15.9
2018-11-10T12:04:15.695Z,15.9
2018-11-10T12:05:04.236Z,15.9
2018-11-10T12:05:54.771Z,15.9
2018-11-10T12:06:44.638Z,15.9
2018-11-10T12:07:35.618Z,15.9
2018-11-10T12:08:24.725Z,15.9
2018-11-10T12:09:15.471Z,15.9
2018-11-10T12:10:06.273Z,15.9
2018-11-10T12:10:55.783Z,15.9
2018-11-10T12:11:45.403Z,15.9
2018-11-10T12:12:36.804Z,15.9